sensor_id;sensor_type;location;lat;lon;timestamp;temperature;humidity
23124;DHT22;11731;48.592;8.858;2022-08-18T00:00:06;21.30;99.90
23124;DHT22;11731;48.592;8.858;2022-08-18T00:02:34;21.60;99.90
23124;DHT22;11731;48.592;8.858;2022-08-18T00:05:04;21.40;99.90
23124;DHT22;11731;48.592;8.858;2022-08-18T00:07:32;21.20;99.90
23124;DHT22;11731;48.592;8.858;2022-08-18T00:10:00;21.10;99.90
23124;DHT22;11731;48.592;8.858;2022-08-18T00:12:35;21.20;99.90
23124;DHT22;11731;48.592;8.858;2022-08-18T00:15:07;21.20;99.90
23124;DHT22;11731;48.592;8.858;2022-08-18T00:17:34;21.30;99.90
23124;DHT22;11731;48.592;8.858;2022-08-18T00:20:04;21.20;99.90
23124;DHT22;11731;48.592;8.858;2022-08-18T00:22:32;21.20;99.90
23124;DHT22;11731;48.592;8.858;2022-08-18T00:24:59;21.30;99.90
23124;DHT22;11731;48.592;8.858;2022-08-18T00:27:27;20.90;99.90
23124;DHT22;11731;48.592;8.858;2022-08-18T00:29:56;20.60;99.90
23124;DHT22;11731;48.592;8.858;2022-08-18T00:32:27;20.60;99.90
23124;DHT22;11731;48.592;8.858;2022-08-18T00:34:55;20.50;99.90
23124;DHT22;11731;48.592;8.858;2022-08-18T00:37:23;20.50;99.90
23124;DHT22;11731;48.592;8.858;2022-08-18T00:39:50;20.70;99.90
23124;DHT22;11731;48.592;8.858;2022-08-18T00:42:19;20.80;99.90
23124;DHT22;11731;48.592;8.858;2022-08-18T00:44:46;21.00;99.90
23124;DHT22;11731;48.592;8.858;2022-08-18T00:47:14;21.00;99.90
23124;DHT22;11731;48.592;8.858;2022-08-18T00:49:45;20.90;99.90
23124;DHT22;11731;48.592;8.858;2022-08-18T00:52:14;20.70;99.90
23124;DHT22;11731;48.592;8.858;2022-08-18T00:54:43;19.90;99.90
23124;DHT22;11731;48.592;8.858;2022-08-18T00:57:12;19.70;99.90
23124;DHT22;11731;48.592;8.858;2022-08-18T00:59:44;19.60;99.90
23124;DHT22;11731;48.592;8.858;2022-08-18T01:02:18;19.60;99.90
23124;DHT22;11731;48.592;8.858;2022-08-18T01:04:52;19.60;99.90
23124;DHT22;11731;48.592;8.858;2022-08-18T01:07:23;19.80;99.90
23124;DHT22;11731;48.592;8.858;2022-08-18T01:09:55;20.10;99.90
23124;DHT22;11731;48.592;8.858;2022-08-18T01:12:24;20.40;99.90
23124;DHT22;11731;48.592;8.858;2022-08-18T01:14:51;20.70;99.90
23124;DHT22;11731;48.592;8.858;2022-08-18T01:17:17;20.80;99.90
23124;DHT22;11731;48.592;8.858;2022-08-18T01:20:04;20.90;99.90
23124;DHT22;11731;48.592;8.858;2022-08-18T01:22:55;21.10;99.90
23124;DHT22;11731;48.592;8.858;2022-08-18T01:25:23;21.10;99.90
23124;DHT22;11731;48.592;8.858;2022-08-18T01:28:07;21.00;99.90
23124;DHT22;11731;48.592;8.858;2022-08-18T01:30:45;21.10;99.90
23124;DHT22;11731;48.592;8.858;2022-08-18T01:33:13;21.10;99.90
23124;DHT22;11731;48.592;8.858;2022-08-18T01:35:42;21.10;99.90
23124;DHT22;11731;48.592;8.858;2022-08-18T01:38:15;21.00;99.90
23124;DHT22;11731;48.592;8.858;2022-08-18T01:40:43;20.80;99.90
23124;DHT22;11731;48.592;8.858;2022-08-18T01:43:10;20.80;99.90
23124;DHT22;11731;48.592;8.858;2022-08-18T01:45:37;20.90;99.90
23124;DHT22;11731;48.592;8.858;2022-08-18T01:48:04;20.90;99.90
23124;DHT22;11731;48.592;8.858;2022-08-18T01:50:32;20.70;99.90
23124;DHT22;11731;48.592;8.858;2022-08-18T01:52:59;20.60;99.90
23124;DHT22;11731;48.592;8.858;2022-08-18T01:55:28;20.80;99.90
23124;DHT22;11731;48.592;8.858;2022-08-18T01:57:55;20.90;99.90
23124;DHT22;11731;48.592;8.858;2022-08-18T02:00:22;20.90;99.90
23124;DHT22;11731;48.592;8.858;2022-08-18T02:02:50;20.80;99.90
23124;DHT22;11731;48.592;8.858;2022-08-18T02:05:21;20.30;99.90
23124;DHT22;11731;48.592;8.858;2022-08-18T02:07:50;20.00;99.90
23124;DHT22;11731;48.592;8.858;2022-08-18T02:10:17;20.00;99.90
23124;DHT22;11731;48.592;8.858;2022-08-18T02:12:45;20.10;99.90
23124;DHT22;11731;48.592;8.858;2022-08-18T02:15:12;19.90;99.90
23124;DHT22;11731;48.592;8.858;2022-08-18T02:17:40;20.20;99.90
23124;DHT22;11731;48.592;8.858;2022-08-18T02:20:10;20.30;99.90
23124;DHT22;11731;48.592;8.858;2022-08-18T02:22:37;20.40;99.90
23124;DHT22;11731;48.592;8.858;2022-08-18T02:25:04;20.60;99.90
23124;DHT22;11731;48.592;8.858;2022-08-18T02:27:32;20.70;99.90
23124;DHT22;11731;48.592;8.858;2022-08-18T02:30:04;20.40;99.90
23124;DHT22;11731;48.592;8.858;2022-08-18T02:32:31;20.40;99.90
23124;DHT22;11731;48.592;8.858;2022-08-18T02:34:58;20.40;99.90
23124;DHT22;11731;48.592;8.858;2022-08-18T02:37:25;20.40;99.90
23124;DHT22;11731;48.592;8.858;2022-08-18T02:39:52;20.60;99.90
23124;DHT22;11731;48.592;8.858;2022-08-18T02:42:19;20.80;99.90
23124;DHT22;11731;48.592;8.858;2022-08-18T02:44:46;20.60;99.90
23124;DHT22;11731;48.592;8.858;2022-08-18T02:47:17;20.70;99.90
23124;DHT22;11731;48.592;8.858;2022-08-18T02:49:45;20.90;99.90
23124;DHT22;11731;48.592;8.858;2022-08-18T02:52:11;21.10;99.90
23124;DHT22;11731;48.592;8.858;2022-08-18T02:54:38;21.20;99.90
23124;DHT22;11731;48.592;8.858;2022-08-18T02:57:06;21.20;99.90
23124;DHT22;11731;48.592;8.858;2022-08-18T02:59:35;21.10;99.90
23124;DHT22;11731;48.592;8.858;2022-08-18T03:02:04;20.90;99.90
23124;DHT22;11731;48.592;8.858;2022-08-18T03:04:34;21.00;99.90
23124;DHT22;11731;48.592;8.858;2022-08-18T03:07:02;21.10;99.90
23124;DHT22;11731;48.592;8.858;2022-08-18T03:09:30;21.20;99.90
23124;DHT22;11731;48.592;8.858;2022-08-18T03:11:58;21.10;99.90
23124;DHT22;11731;48.592;8.858;2022-08-18T03:14:25;21.20;99.90
23124;DHT22;11731;48.592;8.858;2022-08-18T03:16:52;21.20;99.90
23124;DHT22;11731;48.592;8.858;2022-08-18T03:19:19;21.30;99.90
23124;DHT22;11731;48.592;8.858;2022-08-18T03:21:48;21.20;99.90
23124;DHT22;11731;48.592;8.858;2022-08-18T03:24:15;21.20;99.90
23124;DHT22;11731;48.592;8.858;2022-08-18T03:26:44;21.20;99.90
23124;DHT22;11731;48.592;8.858;2022-08-18T03:29:11;21.20;99.90
23124;DHT22;11731;48.592;8.858;2022-08-18T03:31:41;21.20;99.90
23124;DHT22;11731;48.592;8.858;2022-08-18T03:34:10;21.20;99.90
23124;DHT22;11731;48.592;8.858;2022-08-18T03:36:37;21.20;99.90
23124;DHT22;11731;48.592;8.858;2022-08-18T03:39:08;21.20;99.90
23124;DHT22;11731;48.592;8.858;2022-08-18T03:41:37;21.30;99.90
23124;DHT22;11731;48.592;8.858;2022-08-18T03:44:04;21.20;99.90
23124;DHT22;11731;48.592;8.858;2022-08-18T03:46:32;21.10;99.90
23124;DHT22;11731;48.592;8.858;2022-08-18T03:48:59;21.20;99.90
23124;DHT22;11731;48.592;8.858;2022-08-18T03:51:28;21.30;99.90
23124;DHT22;11731;48.592;8.858;2022-08-18T03:53:58;21.30;99.90
23124;DHT22;11731;48.592;8.858;2022-08-18T03:56:29;21.20;99.90
23124;DHT22;11731;48.592;8.858;2022-08-18T03:58:59;21.30;99.90
23124;DHT22;11731;48.592;8.858;2022-08-18T04:01:29;21.20;99.90
23124;DHT22;11731;48.592;8.858;2022-08-18T04:03:59;21.30;99.90
23124;DHT22;11731;48.592;8.858;2022-08-18T04:06:28;21.30;99.90
23124;DHT22;11731;48.592;8.858;2022-08-18T04:08:58;21.30;99.90
23124;DHT22;11731;48.592;8.858;2022-08-18T04:11:31;21.30;99.90
23124;DHT22;11731;48.592;8.858;2022-08-18T04:13:58;21.20;99.90
23124;DHT22;11731;48.592;8.858;2022-08-18T04:16:26;20.70;99.90
23124;DHT22;11731;48.592;8.858;2022-08-18T04:18:54;20.60;99.90
23124;DHT22;11731;48.592;8.858;2022-08-18T04:21:24;20.90;99.90
23124;DHT22;11731;48.592;8.858;2022-08-18T04:23:51;20.90;99.90
23124;DHT22;11731;48.592;8.858;2022-08-18T04:26:18;21.00;99.90
23124;DHT22;11731;48.592;8.858;2022-08-18T04:28:47;21.00;99.90
23124;DHT22;11731;48.592;8.858;2022-08-18T04:31:14;20.90;99.90
23124;DHT22;11731;48.592;8.858;2022-08-18T04:33:42;20.70;99.90
23124;DHT22;11731;48.592;8.858;2022-08-18T04:36:12;20.50;99.90
23124;DHT22;11731;48.592;8.858;2022-08-18T04:38:39;20.60;99.90
23124;DHT22;11731;48.592;8.858;2022-08-18T04:41:08;20.80;99.90
23124;DHT22;11731;48.592;8.858;2022-08-18T04:43:35;20.90;99.90
23124;DHT22;11731;48.592;8.858;2022-08-18T04:46:04;20.70;99.90
23124;DHT22;11731;48.592;8.858;2022-08-18T04:48:32;20.30;99.90
23124;DHT22;11731;48.592;8.858;2022-08-18T04:51:04;20.10;99.90
23124;DHT22;11731;48.592;8.858;2022-08-18T04:53:32;19.90;99.90
23124;DHT22;11731;48.592;8.858;2022-08-18T04:56:16;20.20;99.90
23124;DHT22;11731;48.592;8.858;2022-08-18T04:58:46;20.40;99.90
23124;DHT22;11731;48.592;8.858;2022-08-18T05:01:17;20.50;99.90
23124;DHT22;11731;48.592;8.858;2022-08-18T05:03:45;20.70;99.90
23124;DHT22;11731;48.592;8.858;2022-08-18T05:06:12;20.80;99.90
23124;DHT22;11731;48.592;8.858;2022-08-18T05:08:39;21.00;99.90
23124;DHT22;11731;48.592;8.858;2022-08-18T05:11:06;21.20;99.90
23124;DHT22;11731;48.592;8.858;2022-08-18T05:13:33;21.20;99.90
23124;DHT22;11731;48.592;8.858;2022-08-18T05:16:01;21.10;99.90
23124;DHT22;11731;48.592;8.858;2022-08-18T05:18:30;21.00;99.90
23124;DHT22;11731;48.592;8.858;2022-08-18T05:20:58;21.00;99.90
23124;DHT22;11731;48.592;8.858;2022-08-18T05:23:26;21.20;99.90
23124;DHT22;11731;48.592;8.858;2022-08-18T05:25:58;21.40;99.90
23124;DHT22;11731;48.592;8.858;2022-08-18T05:28:25;21.40;99.90
23124;DHT22;11731;48.592;8.858;2022-08-18T05:30:52;21.40;99.90
23124;DHT22;11731;48.592;8.858;2022-08-18T05:33:19;21.60;99.90
23124;DHT22;11731;48.592;8.858;2022-08-18T05:35:50;21.60;99.90
23124;DHT22;11731;48.592;8.858;2022-08-18T05:38:37;21.70;99.90
23124;DHT22;11731;48.592;8.858;2022-08-18T05:41:09;21.80;99.90
23124;DHT22;11731;48.592;8.858;2022-08-18T05:43:38;21.80;99.90
23124;DHT22;11731;48.592;8.858;2022-08-18T05:46:06;21.80;99.90
23124;DHT22;11731;48.592;8.858;2022-08-18T05:48:36;21.90;99.90
23124;DHT22;11731;48.592;8.858;2022-08-18T05:51:12;21.90;99.90
23124;DHT22;11731;48.592;8.858;2022-08-18T05:53:41;22.00;99.90
23124;DHT22;11731;48.592;8.858;2022-08-18T05:56:28;22.10;99.90
23124;DHT22;11731;48.592;8.858;2022-08-18T05:59:15;22.10;99.90
23124;DHT22;11731;48.592;8.858;2022-08-18T06:01:45;22.10;99.90
23124;DHT22;11731;48.592;8.858;2022-08-18T06:04:23;22.10;99.90
23124;DHT22;11731;48.592;8.858;2022-08-18T06:06:53;22.10;99.90
23124;DHT22;11731;48.592;8.858;2022-08-18T06:09:27;22.20;99.90
23124;DHT22;11731;48.592;8.858;2022-08-18T06:11:57;22.30;99.90
23124;DHT22;11731;48.592;8.858;2022-08-18T06:14:29;22.40;99.90
23124;DHT22;11731;48.592;8.858;2022-08-18T06:17:03;22.60;99.90
23124;DHT22;11731;48.592;8.858;2022-08-18T06:19:42;22.50;99.90
23124;DHT22;11731;48.592;8.858;2022-08-18T06:22:22;22.40;99.90
23124;DHT22;11731;48.592;8.858;2022-08-18T06:24:55;22.40;99.90
23124;DHT22;11731;48.592;8.858;2022-08-18T06:27:32;22.50;99.90
23124;DHT22;11731;48.592;8.858;2022-08-18T06:30:06;22.50;99.90
23124;DHT22;11731;48.592;8.858;2022-08-18T06:32:52;22.60;99.90
23124;DHT22;11731;48.592;8.858;2022-08-18T06:35:31;22.40;99.90
23124;DHT22;11731;48.592;8.858;2022-08-18T06:38:09;22.50;99.90
23124;DHT22;11731;48.592;8.858;2022-08-18T06:41:00;22.60;99.90
23124;DHT22;11731;48.592;8.858;2022-08-18T06:43:28;22.60;99.90
23124;DHT22;11731;48.592;8.858;2022-08-18T06:45:58;22.70;99.90
23124;DHT22;11731;48.592;8.858;2022-08-18T06:48:32;22.60;99.90
23124;DHT22;11731;48.592;8.858;2022-08-18T06:51:04;22.50;99.90
23124;DHT22;11731;48.592;8.858;2022-08-18T06:53:59;21.90;99.90
23124;DHT22;11731;48.592;8.858;2022-08-18T06:59:16;21.70;99.90
23124;DHT22;11731;48.592;8.858;2022-08-18T07:01:43;21.70;99.90
23124;DHT22;11731;48.592;8.858;2022-08-18T07:04:31;21.40;99.90
23124;DHT22;11731;48.592;8.858;2022-08-18T07:06:58;21.10;99.90
23124;DHT22;11731;48.592;8.858;2022-08-18T07:09:38;20.70;99.90
23124;DHT22;11731;48.592;8.858;2022-08-18T07:12:07;20.50;99.90
23124;DHT22;11731;48.592;8.858;2022-08-18T07:14:43;20.70;99.90
23124;DHT22;11731;48.592;8.858;2022-08-18T07:17:12;21.10;99.90
23124;DHT22;11731;48.592;8.858;2022-08-18T07:19:40;21.30;99.90
23124;DHT22;11731;48.592;8.858;2022-08-18T07:22:09;21.60;99.90
23124;DHT22;11731;48.592;8.858;2022-08-18T07:24:41;22.10;99.90
23124;DHT22;11731;48.592;8.858;2022-08-18T07:27:10;22.30;99.90
23124;DHT22;11731;48.592;8.858;2022-08-18T07:29:38;22.40;99.90
23124;DHT22;11731;48.592;8.858;2022-08-18T07:32:10;22.60;99.90
23124;DHT22;11731;48.592;8.858;2022-08-18T07:34:42;22.70;99.90
23124;DHT22;11731;48.592;8.858;2022-08-18T07:37:15;22.90;99.90
23124;DHT22;11731;48.592;8.858;2022-08-18T07:39:53;23.00;99.90
23124;DHT22;11731;48.592;8.858;2022-08-18T07:42:30;23.10;99.90
23124;DHT22;11731;48.592;8.858;2022-08-18T07:45:04;23.10;99.90
23124;DHT22;11731;48.592;8.858;2022-08-18T07:47:43;23.00;99.90
23124;DHT22;11731;48.592;8.858;2022-08-18T07:50:11;22.90;99.90
23124;DHT22;11731;48.592;8.858;2022-08-18T07:52:45;22.90;99.90
23124;DHT22;11731;48.592;8.858;2022-08-18T07:55:26;22.80;99.90
23124;DHT22;11731;48.592;8.858;2022-08-18T07:58:19;22.90;99.90
23124;DHT22;11731;48.592;8.858;2022-08-18T08:01:00;23.00;99.90
23124;DHT22;11731;48.592;8.858;2022-08-18T08:03:35;22.70;99.90
23124;DHT22;11731;48.592;8.858;2022-08-18T08:06:40;22.80;99.90
23124;DHT22;11731;48.592;8.858;2022-08-18T08:09:09;23.00;99.90
23124;DHT22;11731;48.592;8.858;2022-08-18T08:11:49;23.00;99.90
23124;DHT22;11731;48.592;8.858;2022-08-18T08:14:29;23.30;99.90
23124;DHT22;11731;48.592;8.858;2022-08-18T08:17:06;23.30;99.90
23124;DHT22;11731;48.592;8.858;2022-08-18T08:20:03;23.50;99.90
23124;DHT22;11731;48.592;8.858;2022-08-18T08:22:38;23.60;99.90
23124;DHT22;11731;48.592;8.858;2022-08-18T08:25:13;23.70;99.90
23124;DHT22;11731;48.592;8.858;2022-08-18T08:27:53;23.70;99.90
23124;DHT22;11731;48.592;8.858;2022-08-18T08:30:28;23.30;99.90
23124;DHT22;11731;48.592;8.858;2022-08-18T08:33:02;23.40;99.90
23124;DHT22;11731;48.592;8.858;2022-08-18T08:35:37;23.40;99.90
23124;DHT22;11731;48.592;8.858;2022-08-18T08:38:09;23.70;99.90
23124;DHT22;11731;48.592;8.858;2022-08-18T08:40:45;23.60;99.90
23124;DHT22;11731;48.592;8.858;2022-08-18T08:47:00;23.50;99.90
23124;DHT22;11731;48.592;8.858;2022-08-18T08:53:11;23.90;99.90
23124;DHT22;11731;48.592;8.858;2022-08-18T08:59:07;24.00;99.90
23124;DHT22;11731;48.592;8.858;2022-08-18T09:01:42;24.50;99.90
23124;DHT22;11731;48.592;8.858;2022-08-18T09:04:25;24.20;99.90
23124;DHT22;11731;48.592;8.858;2022-08-18T09:07:07;23.50;99.90
23124;DHT22;11731;48.592;8.858;2022-08-18T09:09:50;23.60;99.90
23124;DHT22;11731;48.592;8.858;2022-08-18T09:12:34;23.60;99.90
23124;DHT22;11731;48.592;8.858;2022-08-18T09:15:23;23.40;99.90
23124;DHT22;11731;48.592;8.858;2022-08-18T09:18:30;23.80;99.90
23124;DHT22;11731;48.592;8.858;2022-08-18T09:21:09;24.10;99.90
23124;DHT22;11731;48.592;8.858;2022-08-18T09:23:42;23.90;99.90
23124;DHT22;11731;48.592;8.858;2022-08-18T09:26:37;23.90;99.90
23124;DHT22;11731;48.592;8.858;2022-08-18T09:29:14;24.30;99.90
23124;DHT22;11731;48.592;8.858;2022-08-18T09:31:44;24.50;99.90
23124;DHT22;11731;48.592;8.858;2022-08-18T09:34:32;24.90;99.90
23124;DHT22;11731;48.592;8.858;2022-08-18T09:37:13;25.10;99.90
23124;DHT22;11731;48.592;8.858;2022-08-18T09:39:51;25.20;99.90
23124;DHT22;11731;48.592;8.858;2022-08-18T09:42:40;25.30;99.90
23124;DHT22;11731;48.592;8.858;2022-08-18T09:45:52;25.60;99.90
23124;DHT22;11731;48.592;8.858;2022-08-18T09:48:26;25.90;99.60
23124;DHT22;11731;48.592;8.858;2022-08-18T09:50:57;25.90;99.40
23124;DHT22;11731;48.592;8.858;2022-08-18T09:54:04;25.80;99.40
23124;DHT22;11731;48.592;8.858;2022-08-18T10:05:33;25.90;99.20
23124;DHT22;11731;48.592;8.858;2022-08-18T10:08:25;26.20;98.30
23124;DHT22;11731;48.592;8.858;2022-08-18T10:10:57;26.00;98.00
23124;DHT22;11731;48.592;8.858;2022-08-18T10:13:34;26.40;97.30
23124;DHT22;11731;48.592;8.858;2022-08-18T10:16:14;26.60;97.60
23124;DHT22;11731;48.592;8.858;2022-08-18T10:18:53;26.60;97.80
23124;DHT22;11731;48.592;8.858;2022-08-18T10:21:23;26.70;97.50
23124;DHT22;11731;48.592;8.858;2022-08-18T10:23:56;26.60;98.00
23124;DHT22;11731;48.592;8.858;2022-08-18T10:29:51;26.40;97.60
23124;DHT22;11731;48.592;8.858;2022-08-18T10:32:43;25.80;98.20
23124;DHT22;11731;48.592;8.858;2022-08-18T10:38:27;25.80;97.90
23124;DHT22;11731;48.592;8.858;2022-08-18T10:40:59;25.30;98.70
23124;DHT22;11731;48.592;8.858;2022-08-18T10:43:34;25.30;99.00
23124;DHT22;11731;48.592;8.858;2022-08-18T10:46:04;25.40;98.50
23124;DHT22;11731;48.592;8.858;2022-08-18T10:48:32;25.40;99.00
23124;DHT22;11731;48.592;8.858;2022-08-18T10:51:05;25.70;98.90
23124;DHT22;11731;48.592;8.858;2022-08-18T10:53:43;26.00;97.90
23124;DHT22;11731;48.592;8.858;2022-08-18T10:56:25;26.60;97.40
23124;DHT22;11731;48.592;8.858;2022-08-18T10:59:00;26.80;97.40
23124;DHT22;11731;48.592;8.858;2022-08-18T11:01:40;27.00;96.40
23124;DHT22;11731;48.592;8.858;2022-08-18T11:04:24;26.80;96.50
23124;DHT22;11731;48.592;8.858;2022-08-18T11:07:00;27.10;96.20
23124;DHT22;11731;48.592;8.858;2022-08-18T11:09:29;27.20;96.20
23124;DHT22;11731;48.592;8.858;2022-08-18T11:11:59;27.00;95.20
23124;DHT22;11731;48.592;8.858;2022-08-18T11:14:57;27.10;95.20
23124;DHT22;11731;48.592;8.858;2022-08-18T11:17:46;27.10;95.40
23124;DHT22;11731;48.592;8.858;2022-08-18T11:20:17;27.10;95.40
23124;DHT22;11731;48.592;8.858;2022-08-18T11:22:52;27.00;95.50
23124;DHT22;11731;48.592;8.858;2022-08-18T11:25:26;27.20;95.70
23124;DHT22;11731;48.592;8.858;2022-08-18T11:27:54;27.00;95.90
23124;DHT22;11731;48.592;8.858;2022-08-18T11:30:22;25.90;97.50
23124;DHT22;11731;48.592;8.858;2022-08-18T11:32:52;25.70;98.00
23124;DHT22;11731;48.592;8.858;2022-08-18T11:35:23;25.60;98.10
23124;DHT22;11731;48.592;8.858;2022-08-18T11:37:55;25.40;98.60
23124;DHT22;11731;48.592;8.858;2022-08-18T11:40:33;25.40;98.40
23124;DHT22;11731;48.592;8.858;2022-08-18T11:43:05;25.60;98.50
23124;DHT22;11731;48.592;8.858;2022-08-18T11:45:49;25.30;98.80
23124;DHT22;11731;48.592;8.858;2022-08-18T11:48:30;25.00;99.10
23124;DHT22;11731;48.592;8.858;2022-08-18T11:51:00;24.90;99.10
23124;DHT22;11731;48.592;8.858;2022-08-18T11:53:52;24.80;99.20
23124;DHT22;11731;48.592;8.858;2022-08-18T11:56:23;24.80;99.10
23124;DHT22;11731;48.592;8.858;2022-08-18T11:58:53;25.00;99.00
23124;DHT22;11731;48.592;8.858;2022-08-18T12:01:33;24.80;98.80
23124;DHT22;11731;48.592;8.858;2022-08-18T12:04:30;25.00;98.90
23124;DHT22;11731;48.592;8.858;2022-08-18T12:07:01;24.90;99.20
23124;DHT22;11731;48.592;8.858;2022-08-18T12:09:35;24.70;99.30
23124;DHT22;11731;48.592;8.858;2022-08-18T12:12:06;24.40;99.60
23124;DHT22;11731;48.592;8.858;2022-08-18T12:14:50;24.50;99.30
23124;DHT22;11731;48.592;8.858;2022-08-18T12:17:36;24.40;99.40
23124;DHT22;11731;48.592;8.858;2022-08-18T12:20:05;24.30;99.50
23124;DHT22;11731;48.592;8.858;2022-08-18T12:22:34;24.50;99.40
23124;DHT22;11731;48.592;8.858;2022-08-18T12:25:02;24.60;98.70
23124;DHT22;11731;48.592;8.858;2022-08-18T12:27:30;24.60;98.90
23124;DHT22;11731;48.592;8.858;2022-08-18T12:29:57;24.40;99.20
23124;DHT22;11731;48.592;8.858;2022-08-18T12:32:30;24.70;98.90
23124;DHT22;11731;48.592;8.858;2022-08-18T12:34:58;24.80;98.70
23124;DHT22;11731;48.592;8.858;2022-08-18T12:37:28;25.10;98.50
23124;DHT22;11731;48.592;8.858;2022-08-18T12:39:56;25.30;98.00
23124;DHT22;11731;48.592;8.858;2022-08-18T12:42:24;25.30;97.80
23124;DHT22;11731;48.592;8.858;2022-08-18T12:44:51;25.30;97.70
23124;DHT22;11731;48.592;8.858;2022-08-18T12:47:20;25.30;97.80
23124;DHT22;11731;48.592;8.858;2022-08-18T12:49:48;25.50;97.10
23124;DHT22;11731;48.592;8.858;2022-08-18T12:52:15;25.50;96.80
23124;DHT22;11731;48.592;8.858;2022-08-18T12:54:43;25.70;96.40
23124;DHT22;11731;48.592;8.858;2022-08-18T12:57:17;26.20;95.90
23124;DHT22;11731;48.592;8.858;2022-08-18T12:59:45;26.30;95.90
23124;DHT22;11731;48.592;8.858;2022-08-18T13:02:12;26.50;95.00
23124;DHT22;11731;48.592;8.858;2022-08-18T13:04:38;26.50;94.60
23124;DHT22;11731;48.592;8.858;2022-08-18T13:07:05;26.40;94.80
23124;DHT22;11731;48.592;8.858;2022-08-18T13:09:35;26.20;95.30
23124;DHT22;11731;48.592;8.858;2022-08-18T13:12:04;25.50;96.20
23124;DHT22;11731;48.592;8.858;2022-08-18T13:14:32;25.20;96.90
23124;DHT22;11731;48.592;8.858;2022-08-18T13:16:59;25.40;95.90
23124;DHT22;11731;48.592;8.858;2022-08-18T13:19:26;25.80;95.10
23124;DHT22;11731;48.592;8.858;2022-08-18T13:21:53;26.50;94.50
23124;DHT22;11731;48.592;8.858;2022-08-18T13:24:20;26.60;94.20
23124;DHT22;11731;48.592;8.858;2022-08-18T13:26:49;26.30;94.20
23124;DHT22;11731;48.592;8.858;2022-08-18T13:29:32;26.00;94.70
23124;DHT22;11731;48.592;8.858;2022-08-18T13:32:05;25.90;94.50
23124;DHT22;11731;48.592;8.858;2022-08-18T13:34:34;26.20;93.90
23124;DHT22;11731;48.592;8.858;2022-08-18T13:37:01;26.00;93.90
23124;DHT22;11731;48.592;8.858;2022-08-18T13:39:30;25.60;94.30
23124;DHT22;11731;48.592;8.858;2022-08-18T13:41:57;25.60;94.80
23124;DHT22;11731;48.592;8.858;2022-08-18T13:44:24;26.20;93.90
23124;DHT22;11731;48.592;8.858;2022-08-18T13:49:59;26.60;93.50
23124;DHT22;11731;48.592;8.858;2022-08-18T13:52:27;26.90;93.10
23124;DHT22;11731;48.592;8.858;2022-08-18T13:54:54;27.00;92.70
23124;DHT22;11731;48.592;8.858;2022-08-18T13:57:23;27.10;91.40
23124;DHT22;11731;48.592;8.858;2022-08-18T13:59:50;27.00;91.20
23124;DHT22;11731;48.592;8.858;2022-08-18T14:02:42;27.10;91.70
23124;DHT22;11731;48.592;8.858;2022-08-18T14:05:17;27.40;90.50
23124;DHT22;11731;48.592;8.858;2022-08-18T14:08:03;27.30;90.90
23124;DHT22;11731;48.592;8.858;2022-08-18T14:10:31;27.60;90.40
23124;DHT22;11731;48.592;8.858;2022-08-18T14:13:00;27.30;91.00
23124;DHT22;11731;48.592;8.858;2022-08-18T14:15:31;27.20;91.50
23124;DHT22;11731;48.592;8.858;2022-08-18T14:18:12;27.40;90.70
23124;DHT22;11731;48.592;8.858;2022-08-18T14:20:48;27.80;90.50
23124;DHT22;11731;48.592;8.858;2022-08-18T14:23:32;27.50;90.20
23124;DHT22;11731;48.592;8.858;2022-08-18T14:26:53;27.80;90.40
23124;DHT22;11731;48.592;8.858;2022-08-18T14:29:46;28.00;89.20
23124;DHT22;11731;48.592;8.858;2022-08-18T14:32:18;27.90;90.30
23124;DHT22;11731;48.592;8.858;2022-08-18T14:34:46;28.10;90.00
23124;DHT22;11731;48.592;8.858;2022-08-18T14:37:15;27.30;90.50
23124;DHT22;11731;48.592;8.858;2022-08-18T14:39:42;26.80;90.90
23124;DHT22;11731;48.592;8.858;2022-08-18T14:42:16;27.20;90.90
23124;DHT22;11731;48.592;8.858;2022-08-18T14:44:43;27.70;90.70
23124;DHT22;11731;48.592;8.858;2022-08-18T14:47:10;27.90;90.30
23124;DHT22;11731;48.592;8.858;2022-08-18T14:49:37;27.60;90.40
23124;DHT22;11731;48.592;8.858;2022-08-18T14:52:05;27.50;91.10
23124;DHT22;11731;48.592;8.858;2022-08-18T14:54:39;27.60;90.90
23124;DHT22;11731;48.592;8.858;2022-08-18T14:57:16;27.70;90.70
23124;DHT22;11731;48.592;8.858;2022-08-18T14:59:43;28.10;90.20
23124;DHT22;11731;48.592;8.858;2022-08-18T15:02:11;28.30;89.70
23124;DHT22;11731;48.592;8.858;2022-08-18T15:04:42;28.20;89.00
23124;DHT22;11731;48.592;8.858;2022-08-18T15:07:09;28.10;89.30
23124;DHT22;11731;48.592;8.858;2022-08-18T15:09:37;28.20;88.90
23124;DHT22;11731;48.592;8.858;2022-08-18T15:12:05;28.30;88.10
23124;DHT22;11731;48.592;8.858;2022-08-18T15:14:33;27.90;89.20
23124;DHT22;11731;48.592;8.858;2022-08-18T15:17:02;28.10;88.40
23124;DHT22;11731;48.592;8.858;2022-08-18T15:19:29;28.20;88.70
23124;DHT22;11731;48.592;8.858;2022-08-18T15:21:56;28.00;89.10
23124;DHT22;11731;48.592;8.858;2022-08-18T15:24:42;27.70;89.90
23124;DHT22;11731;48.592;8.858;2022-08-18T15:27:31;27.00;90.90
23124;DHT22;11731;48.592;8.858;2022-08-18T15:30:01;26.90;91.40
23124;DHT22;11731;48.592;8.858;2022-08-18T15:32:29;26.70;91.60
23124;DHT22;11731;48.592;8.858;2022-08-18T15:34:56;26.20;92.10
23124;DHT22;11731;48.592;8.858;2022-08-18T15:37:23;25.90;92.60
23124;DHT22;11731;48.592;8.858;2022-08-18T15:40:08;25.90;92.50
23124;DHT22;11731;48.592;8.858;2022-08-18T15:42:36;26.10;92.70
23124;DHT22;11731;48.592;8.858;2022-08-18T15:45:04;26.30;92.40
23124;DHT22;11731;48.592;8.858;2022-08-18T15:47:32;26.20;92.70
23124;DHT22;11731;48.592;8.858;2022-08-18T15:49:59;25.60;93.80
23124;DHT22;11731;48.592;8.858;2022-08-18T15:52:26;25.40;94.20
23124;DHT22;11731;48.592;8.858;2022-08-18T15:55:07;25.50;94.30
23124;DHT22;11731;48.592;8.858;2022-08-18T15:57:34;25.30;94.70
23124;DHT22;11731;48.592;8.858;2022-08-18T16:00:04;25.40;94.60
23124;DHT22;11731;48.592;8.858;2022-08-18T16:02:31;25.90;94.30
23124;DHT22;11731;48.592;8.858;2022-08-18T16:04:59;25.80;94.50
23124;DHT22;11731;48.592;8.858;2022-08-18T16:07:27;26.10;94.60
23124;DHT22;11731;48.592;8.858;2022-08-18T16:09:54;25.80;95.00
23124;DHT22;11731;48.592;8.858;2022-08-18T16:12:22;25.80;95.00
23124;DHT22;11731;48.592;8.858;2022-08-18T16:14:49;25.30;95.70
23124;DHT22;11731;48.592;8.858;2022-08-18T16:17:17;25.00;96.10
23124;DHT22;11731;48.592;8.858;2022-08-18T16:19:45;24.70;96.80
23124;DHT22;11731;48.592;8.858;2022-08-18T16:22:12;25.00;96.20
23124;DHT22;11731;48.592;8.858;2022-08-18T16:24:46;25.10;96.20
23124;DHT22;11731;48.592;8.858;2022-08-18T16:27:13;24.90;96.30
23124;DHT22;11731;48.592;8.858;2022-08-18T16:29:42;25.00;96.60
23124;DHT22;11731;48.592;8.858;2022-08-18T16:32:09;25.00;96.10
23124;DHT22;11731;48.592;8.858;2022-08-18T16:34:37;25.00;96.40